Enter the Airport ICAO Code

Search by Airport or City

Current Weather

SCDA | Diego Aracena International Airport

Iquique, Chile

Last Update 2 Minutes Ago

Clear Sky

Temperature of 15 ēC

Moderate Winds from South

Temperature

15 ēC

Dew Point Temperature

11 ēC

Relative Humidity

77.09 %

Wind Direction

South (200ē, Without Significant Variations)

Wind Velocity

22 km/h (12 kt)

Gusts

None

Visibility

No Significant Reductions

Sea Level Pressure

1018 hPa (Hectopascals)

Layers of Clouds

None

METAR SCDA 210000Z 20012KT CAVOK 15/11 Q1018

Weather Forecast

SCDA | Diego Aracena International Airport

Iquique, Chile

Forecast valid for the next 24 Hours

From now on it is expected:

Clear Sky

Moderate Winds from SouthWest

In 2 to 4 hours it is expected the begining of:

Mostly Cloudy Sky

Light Winds from South

In 13 to 14 hours it is expected the begining of:

Partly Cloudy Sky

Moderate Winds from SouthWest

In 15 to 17 hours it is expected the begining of:

Clear Sky

Maximum Temperature

18 ēC in 18 Hours

Minimum Temperature

14 ēC in 10 Hours

TAF SCDA 202210Z 2100/2124 21012KT CAVOK TN14/2110Z TX18/2118Z BECMG 2102/2104 20004KT BKN022 BECMG 2113/2114 23010KT SCT022 BECMG 2115/2117 21014KT CAVOK